Time;durP1;ratioP1;P1;durP2;ratioP2;P2;SDS_P1;SDS_P2;PMS_P1;PMS_P2;Temp;Humidity;BMP_temperature;BMP_pressure;BME280_temperature;BME280_humidity;BME280_pressure;Samples;Min_cycle;Max_cycle;Signal;HPM_P1;HPM_P2
2022/06/17 00:01:04;;;;;;;0.90;0.90;;;;;;;;;;5014998;28;20294;-82
2022/06/17 00:03:34;;;;;;;1.20;1.05;;;;;;;;;;5016015;28;20286;-81
2022/06/17 00:06:04;;;;;;;1.48;1.30;;;;;;;;;;5016539;28;20282;-81
2022/06/17 00:08:37;;;;;;;1.08;0.80;;;;;;;;;;5016433;28;20223;-82
2022/06/17 00:11:06;;;;;;;1.10;1.02;;;;;;;;;;5015953;28;20206;-81
2022/06/17 00:13:34;;;;;;;2.13;1.35;;;;;;;;;;5016326;28;20309;-81
2022/06/17 00:16:02;;;;;;;1.42;1.10;;;;;;;;;;5016899;28;20225;-81
2022/06/17 00:18:30;;;;;;;1.83;1.48;;;;;;;;;;5015485;28;20691;-81
2022/06/17 00:20:57;;;;;;;1.13;1.13;;;;;;;;;;5016195;28;20230;-82
2022/06/17 00:23:25;;;;;;;1.33;1.23;;;;;;;;;;5016448;28;20217;-81
2022/06/17 00:25:52;;;;;;;1.02;1.02;;;;;;;;;;5016134;28;20249;-81
2022/06/17 00:28:23;;;;;;;0.90;0.90;;;;;;;;;;5017099;28;20658;-81
2022/06/17 00:30:50;;;;;;;1.65;1.20;;;;;;;;;;5016576;28;20309;-81
2022/06/17 00:33:20;;;;;;;1.30;1.20;;;;;;;;;;5015881;28;20643;-81
2022/06/17 00:35:52;;;;;;;1.00;1.00;;;;;;;;;;5017152;28;20645;-81
2022/06/17 00:38:23;;;;;;;1.27;1.17;;;;;;;;;;5016733;28;20199;-81
2022/06/17 00:40:52;;;;;;;1.20;1.10;;;;;;;;;;5016454;28;20270;-81
2022/06/17 00:43:28;;;;;;;1.00;1.00;;;;;;;;;;5015783;28;20271;-82
2022/06/17 00:46:06;;;;;;;1.90;1.52;;;;;;;;;;5016137;28;20452;-81
2022/06/17 00:48:40;;;;;;;1.23;1.10;;;;;;;;;;5016442;28;20310;-80
2022/06/17 00:51:15;;;;;;;1.20;1.10;;;;;;;;;;5016561;28;20576;-81
2022/06/17 00:53:48;;;;;;;2.17;1.95;;;;;;;;;;5015930;28;20214;-82
2022/06/17 00:56:19;;;;;;;1.40;1.30;;;;;;;;;;5015375;28;20183;-81
2022/06/17 00:59:02;;;;;;;1.67;1.52;;;;;;;;;;5015811;28;20278;-81
2022/06/17 01:01:33;;;;;;;1.15;1.10;;;;;;;;;;5016768;28;20249;-80
2022/06/17 01:04:05;;;;;;;1.00;1.00;;;;;;;;;;5016362;28;20290;-81
2022/06/17 01:06:37;;;;;;;2.17;1.98;;;;;;;;;;5016196;28;20668;-81
2022/06/17 01:11:54;;;;;;;1.23;1.15;;;;;;;;;;5014956;28;20225;-81
2022/06/17 01:14:23;;;;;;;1.08;1.05;;;;;;;;;;5016397;28;20207;-81
2022/06/17 01:16:51;;;;;;;1.67;1.30;;;;;;;;;;5015029;28;20199;-81
2022/06/17 01:19:30;;;;;;;1.85;1.35;;;;;;;;;;5015995;28;20318;-81
2022/06/17 01:22:09;;;;;;;1.55;1.45;;;;;;;;;;5015857;28;20680;-81
2022/06/17 01:24:38;;;;;;;1.10;1.10;;;;;;;;;;5015789;28;20686;-81
2022/06/17 01:27:06;;;;;;;1.10;1.10;;;;;;;;;;5015651;28;20294;-81
2022/06/17 01:29:34;;;;;;;1.45;1.30;;;;;;;;;;5015858;28;20309;-81
2022/06/17 01:32:02;;;;;;;1.63;1.52;;;;;;;;;;5016248;28;20198;-81
2022/06/17 01:34:29;;;;;;;1.30;1.20;;;;;;;;;;5015862;28;20293;-82
2022/06/17 01:36:58;;;;;;;2.75;1.63;;;;;;;;;;5015717;28;20266;-81
2022/06/17 01:39:26;;;;;;;1.40;1.30;;;;;;;;;;5015534;28;20218;-81
2022/06/17 01:41:55;;;;;;;1.92;1.23;;;;;;;;;;5015171;28;20249;-82
2022/06/17 01:44:25;;;;;;;1.20;1.20;;;;;;;;;;5015503;28;20745;-81
2022/06/17 01:46:57;;;;;;;1.80;1.70;;;;;;;;;;5015344;28;20211;-81
2022/06/17 01:49:28;;;;;;;1.80;1.13;;;;;;;;;;5015121;28;20787;-81
2022/06/17 01:51:58;;;;;;;1.52;1.30;;;;;;;;;;5014763;28;20210;-81
2022/06/17 01:54:31;;;;;;;2.05;1.23;;;;;;;;;;5014753;28;20203;-81
2022/06/17 01:57:03;;;;;;;1.20;1.10;;;;;;;;;;5015359;28;20203;-82
2022/06/17 01:59:34;;;;;;;1.00;1.00;;;;;;;;;;5015300;28;20282;-81
2022/06/17 02:02:04;;;;;;;1.10;1.10;;;;;;;;;;5015639;28;20744;-82
2022/06/17 02:04:34;;;;;;;1.65;1.33;;;;;;;;;;5015478;28;20203;-82
2022/06/17 02:07:07;;;;;;;1.40;1.30;;;;;;;;;;5015165;28;20239;-81
2022/06/17 02:09:35;;;;;;;1.58;1.48;;;;;;;;;;5014660;28;20241;-81
2022/06/17 02:12:05;;;;;;;1.85;1.45;;;;;;;;;;5013411;28;20585;-82
2022/06/17 02:14:34;;;;;;;1.50;1.40;;;;;;;;;;5015120;28;20299;-82
2022/06/17 02:17:01;;;;;;;1.40;1.30;;;;;;;;;;5013891;28;20286;-82
2022/06/17 02:19:33;;;;;;;1.35;1.25;;;;;;;;;;5014310;28;20310;-81
2022/06/17 02:22:08;;;;;;;1.80;1.55;;;;;;;;;;5014403;28;20222;-81
2022/06/17 02:24:36;;;;;;;1.98;1.30;;;;;;;;;;5014668;28;20266;-82
2022/06/17 02:27:08;;;;;;;1.90;1.63;;;;;;;;;;5014425;28;20290;-81
2022/06/17 02:29:38;;;;;;;1.55;1.40;;;;;;;;;;5014078;28;20313;-82
2022/06/17 02:32:10;;;;;;;1.40;1.30;;;;;;;;;;5014421;28;20643;-81
2022/06/17 02:34:43;;;;;;;1.35;1.25;;;;;;;;;;5014884;28;20563;-81
2022/06/17 02:37:13;;;;;;;1.10;1.10;;;;;;;;;;5014930;28;20285;-82
2022/06/17 02:39:45;;;;;;;0.93;0.93;;;;;;;;;;5014480;28;20301;-83
2022/06/17 02:42:20;;;;;;;1.25;1.15;;;;;;;;;;5014165;28;20293;-82
2022/06/17 02:44:50;;;;;;;3.92;1.13;;;;;;;;;;5014539;28;20202;-82
2022/06/17 02:47:18;;;;;;;1.00;1.00;;;;;;;;;;5014342;28;20640;-81
2022/06/17 02:49:45;;;;;;;1.15;1.15;;;;;;;;;;5013707;28;20230;-82
2022/06/17 02:52:18;;;;;;;1.15;1.00;;;;;;;;;;5013883;28;20209;-82
2022/06/17 02:54:49;;;;;;;1.20;1.10;;;;;;;;;;5014095;28;20548;-81
2022/06/17 02:57:28;;;;;;;0.85;0.85;;;;;;;;;;5014405;28;20638;-81
2022/06/17 03:00:05;;;;;;;0.95;0.95;;;;;;;;;;5014495;28;20305;-81
2022/06/17 03:02:37;;;;;;;2.38;1.52;;;;;;;;;;5014010;28;20285;-82
2022/06/17 03:05:06;;;;;;;1.73;1.60;;;;;;;;;;5014321;28;20310;-81
2022/06/17 03:07:33;;;;;;;1.35;1.27;;;;;;;;;;5014768;28;20668;-81
2022/06/17 03:10:01;;;;;;;1.30;1.20;;;;;;;;;;5012795;28;20783;-81
2022/06/17 03:12:31;;;;;;;1.20;1.10;;;;;;;;;;5013479;28;20207;-81
2022/06/17 03:15:04;;;;;;;1.05;1.05;;;;;;;;;;5013057;28;20206;-82
2022/06/17 03:17:33;;;;;;;1.35;1.20;;;;;;;;;;5012389;28;20724;-82
2022/06/17 03:20:04;;;;;;;1.95;1.75;;;;;;;;;;5016664;28;20225;-83
2022/06/17 03:22:32;;;;;;;0.98;0.90;;;;;;;;;;5016824;28;20266;-82
2022/06/17 03:25:05;;;;;;;1.40;1.27;;;;;;;;;;5016181;28;20650;-81
2022/06/17 03:27:41;;;;;;;1.05;1.05;;;;;;;;;;5016868;28;20617;-81
2022/06/17 03:30:11;;;;;;;1.00;1.00;;;;;;;;;;5016588;28;20234;-81
2022/06/17 03:32:41;;;;;;;1.10;1.10;;;;;;;;;;5016365;28;20286;-82
2022/06/17 03:35:17;;;;;;;1.00;1.00;;;;;;;;;;5016935;28;20199;-83
2022/06/17 03:37:52;;;;;;;1.42;1.33;;;;;;;;;;5017037;28;20191;-81
2022/06/17 03:40:24;;;;;;;0.82;0.80;;;;;;;;;;5016503;28;20226;-80
2022/06/17 03:42:59;;;;;;;1.05;1.05;;;;;;;;;;5016134;28;20285;-82
2022/06/17 03:45:30;;;;;;;1.23;1.00;;;;;;;;;;5017549;28;20290;-82
2022/06/17 03:48:01;;;;;;;0.98;0.98;;;;;;;;;;5016356;28;20301;-81
2022/06/17 03:50:32;;;;;;;1.15;1.10;;;;;;;;;;5016128;28;20295;-81
2022/06/17 03:53:03;;;;;;;1.13;1.13;;;;;;;;;;5016118;28;20290;-81
2022/06/17 03:55:31;;;;;;;1.00;1.00;;;;;;;;;;5015915;28;20218;-81
2022/06/17 03:58:02;;;;;;;0.90;0.90;;;;;;;;;;5016248;28;20199;-81
2022/06/17 04:00:36;;;;;;;0.65;0.65;;;;;;;;;;5016926;28;20663;-82
2022/06/17 04:03:05;;;;;;;1.77;1.10;;;;;;;;;;5016308;28;20203;-82
2022/06/17 04:05:33;;;;;;;0.85;0.82;;;;;;;;;;5015918;28;20203;-81
2022/06/17 04:08:00;;;;;;;1.75;1.65;;;;;;;;;;5016144;28;20209;-82
2022/06/17 04:10:30;;;;;;;0.80;0.80;;;;;;;;;;5015075;28;20274;-81
2022/06/17 04:12:59;;;;;;;0.88;0.88;;;;;;;;;;5015810;28;20234;-82
2022/06/17 04:15:39;;;;;;;1.65;1.25;;;;;;;;;;5015960;28;20299;-80
2022/06/17 04:18:08;;;;;;;0.60;0.60;;;;;;;;;;5011219;28;20243;-81
2022/06/17 04:20:43;;;;;;;1.05;1.05;;;;;;;;;;4996506;28;20274;-82
2022/06/17 04:23:16;;;;;;;1.13;1.02;;;;;;;;;;4996143;28;20255;-82
2022/06/17 04:25:47;;;;;;;0.80;0.80;;;;;;;;;;4996353;28;20676;-82
2022/06/17 04:28:20;;;;;;;0.93;0.90;;;;;;;;;;4996424;28;20286;-82
2022/06/17 04:30:51;;;;;;;0.90;0.90;;;;;;;;;;4996184;28;20315;-81
2022/06/17 04:33:28;;;;;;;1.65;0.98;;;;;;;;;;4995946;28;20290;-81
2022/06/17 04:36:01;;;;;;;0.90;0.90;;;;;;;;;;4996017;28;20199;-80
2022/06/17 04:38:30;;;;;;;0.70;0.70;;;;;;;;;;4995981;28;20235;-81
2022/06/17 04:41:00;;;;;;;1.08;0.95;;;;;;;;;;4995568;28;20282;-81
2022/06/17 04:43:33;;;;;;;1.10;1.10;;;;;;;;;;4995453;28;20267;-80
2022/06/17 04:46:06;;;;;;;2.17;0.95;;;;;;;;;;4995598;28;20242;-81
2022/06/17 04:48:33;;;;;;;1.20;1.10;;;;;;;;;;4995464;28;20294;-81
2022/06/17 04:51:01;;;;;;;1.55;1.40;;;;;;;;;;4995211;28;20776;-80
2022/06/17 04:53:31;;;;;;;1.70;1.30;;;;;;;;;;4995459;28;20295;-82
2022/06/17 04:55:59;;;;;;;1.35;1.30;;;;;;;;;;4995466;28;20235;-82
2022/06/17 04:58:30;;;;;;;0.93;0.93;;;;;;;;;;4995194;28;20247;-82
2022/06/17 05:00:59;;;;;;;1.15;1.15;;;;;;;;;;4995547;28;20204;-82
2022/06/17 05:03:30;;;;;;;0.98;0.98;;;;;;;;;;4995504;28;20290;-80
2022/06/17 05:05:58;;;;;;;0.82;0.82;;;;;;;;;;4995600;28;20208;-81
2022/06/17 05:08:34;;;;;;;1.30;1.20;;;;;;;;;;4995204;28;20291;-84
2022/06/17 05:11:07;;;;;;;5.35;1.48;;;;;;;;;;4995133;28;20324;-82
2022/06/17 05:13:40;;;;;;;1.10;1.10;;;;;;;;;;4994937;28;20211;-81
2022/06/17 05:16:12;;;;;;;1.20;1.20;;;;;;;;;;4995060;28;20298;-81
2022/06/17 05:18:39;;;;;;;1.10;1.10;;;;;;;;;;4994314;28;20227;-84
2022/06/17 05:21:07;;;;;;;1.40;1.30;;;;;;;;;;4995141;28;20200;-83
2022/06/17 05:23:35;;;;;;;1.10;1.10;;;;;;;;;;4994903;28;20569;-83
2022/06/17 05:26:03;;;;;;;1.40;1.35;;;;;;;;;;4994694;28;20298;-84
2022/06/17 05:28:30;;;;;;;1.38;1.20;;;;;;;;;;4994392;28;20294;-84
2022/06/17 05:30:59;;;;;;;1.90;1.80;;;;;;;;;;4994562;28;20286;-84
2022/06/17 05:33:28;;;;;;;3.22;1.63;;;;;;;;;;4994760;28;20213;-84
2022/06/17 05:35:56;;;;;;;1.98;1.50;;;;;;;;;;4995051;28;20208;-84
2022/06/17 05:38:23;;;;;;;1.63;1.50;;;;;;;;;;4994883;28;20298;-84
2022/06/17 05:40:51;;;;;;;1.30;1.20;;;;;;;;;;4994525;28;20281;-83
2022/06/17 05:43:19;;;;;;;1.60;1.50;;;;;;;;;;4994326;28;20306;-81
2022/06/17 05:45:46;;;;;;;1.88;1.30;;;;;;;;;;4994407;28;20555;-81
2022/06/17 05:48:15;;;;;;;1.55;1.42;;;;;;;;;;4994353;28;20294;-80
2022/06/17 05:50:43;;;;;;;1.35;1.25;;;;;;;;;;4995049;28;20315;-82
2022/06/17 05:53:13;;;;;;;1.38;1.27;;;;;;;;;;4994345;28;20335;-82
2022/06/17 05:55:41;;;;;;;1.80;1.70;;;;;;;;;;4994582;28;20592;-80
2022/06/17 05:58:09;;;;;;;1.48;1.38;;;;;;;;;;4994857;28;20720;-81
2022/06/17 06:00:37;;;;;;;1.40;1.30;;;;;;;;;;5004270;28;20245;-81
2022/06/17 06:03:07;;;;;;;1.45;1.35;;;;;;;;;;5014794;28;20227;-81
2022/06/17 06:05:36;;;;;;;1.60;1.30;;;;;;;;;;5014174;28;20289;-81
2022/06/17 06:08:04;;;;;;;1.67;1.58;;;;;;;;;;5013962;28;20286;-81
2022/06/17 06:10:32;;;;;;;3.17;1.52;;;;;;;;;;5013903;28;20679;-81
2022/06/17 06:13:01;;;;;;;1.42;1.35;;;;;;;;;;5013829;28;20310;-80
2022/06/17 06:15:38;;;;;;;1.50;1.40;;;;;;;;;;5013866;28;20211;-81
2022/06/17 06:18:06;;;;;;;1.50;1.40;;;;;;;;;;5013799;28;20551;-81
2022/06/17 06:20:35;;;;;;;1.70;1.60;;;;;;;;;;5014645;28;20230;-81
2022/06/17 06:23:03;;;;;;;2.05;1.70;;;;;;;;;;5013645;28;20290;-81
2022/06/17 06:25:30;;;;;;;1.52;1.42;;;;;;;;;;5014043;28;20353;-82
2022/06/17 06:27:58;;;;;;;2.50;2.30;;;;;;;;;;5014444;28;20298;-81
2022/06/17 06:30:28;;;;;;;2.38;2.20;;;;;;;;;;5013717;28;20763;-81
2022/06/17 06:32:58;;;;;;;1.90;1.80;;;;;;;;;;5014132;28;20211;-81
2022/06/17 06:35:28;;;;;;;4.00;1.75;;;;;;;;;;5014587;28;20671;-82
2022/06/17 06:37:57;;;;;;;1.45;1.38;;;;;;;;;;5014061;28;20187;-81
2022/06/17 06:40:26;;;;;;;1.38;1.27;;;;;;;;;;5013453;28;20258;-84
2022/06/17 06:42:55;;;;;;;1.60;1.50;;;;;;;;;;5013991;28;20616;-84
2022/06/17 06:45:26;;;;;;;3.78;1.50;;;;;;;;;;5013951;28;20290;-84
2022/06/17 06:47:56;;;;;;;1.85;1.75;;;;;;;;;;5014464;28;20199;-84
2022/06/17 06:50:26;;;;;;;1.35;1.25;;;;;;;;;;5013866;28;20309;-84
2022/06/17 06:52:54;;;;;;;1.80;1.20;;;;;;;;;;5015096;28;20298;-83
2022/06/17 06:55:22;;;;;;;1.33;1.23;;;;;;;;;;5018178;28;20290;-84
2022/06/17 06:57:53;;;;;;;1.40;1.30;;;;;;;;;;5017757;28;20298;-82
2022/06/17 07:00:25;;;;;;;3.22;1.30;;;;;;;;;;5017359;28;20722;-84
2022/06/17 07:02:53;;;;;;;1.33;1.23;;;;;;;;;;5018140;28;20229;-84
2022/06/17 07:05:21;;;;;;;2.50;1.65;;;;;;;;;;5018384;28;20613;-82
2022/06/17 07:07:48;;;;;;;2.83;1.90;;;;;;;;;;5018693;28;20290;-83
2022/06/17 07:10:22;;;;;;;1.55;1.45;;;;;;;;;;5017631;28;20326;-84
2022/06/17 07:12:51;;;;;;;1.95;1.73;;;;;;;;;;5017598;28;20207;-84
2022/06/17 07:15:19;;;;;;;1.30;1.25;;;;;;;;;;5017774;28;20310;-82
2022/06/17 07:17:58;;;;;;;1.55;1.45;;;;;;;;;;5015748;28;20234;-82
2022/06/17 07:20:28;;;;;;;1.73;1.63;;;;;;;;;;4998114;28;20287;-84
2022/06/17 07:22:55;;;;;;;2.03;1.92;;;;;;;;;;4997715;28;20235;-84
2022/06/17 07:25:23;;;;;;;2.25;1.40;;;;;;;;;;4998139;28;20299;-85
2022/06/17 07:27:52;;;;;;;2.05;1.83;;;;;;;;;;4998020;28;20239;-83
2022/06/17 07:30:22;;;;;;;2.63;1.55;;;;;;;;;;4997962;28;20310;-85
2022/06/17 07:32:49;;;;;;;1.70;1.60;;;;;;;;;;4998573;28;20310;-84
2022/06/17 07:35:18;;;;;;;1.73;1.40;;;;;;;;;;4998378;28;20302;-82
2022/06/17 07:40:31;;;;;;;1.50;1.40;;;;;;;;;;4998375;28;20274;-83
2022/06/17 07:43:01;;;;;;;1.40;1.30;;;;;;;;;;4998047;28;20236;-83
2022/06/17 07:45:30;;;;;;;1.50;1.40;;;;;;;;;;4997927;28;20243;-85
2022/06/17 07:47:59;;;;;;;1.75;1.33;;;;;;;;;;5002582;28;20250;-84
2022/06/17 07:50:31;;;;;;;1.27;1.15;;;;;;;;;;5018361;28;20330;-83
2022/06/17 07:52:58;;;;;;;1.65;1.40;;;;;;;;;;5017748;28;20297;-81
2022/06/17 07:55:26;;;;;;;1.38;1.27;;;;;;;;;;5017250;28;20299;-82
2022/06/17 07:57:54;;;;;;;1.73;1.63;;;;;;;;;;5018378;28;20289;-81
2022/06/17 08:00:27;;;;;;;1.40;1.25;;;;;;;;;;5017754;28;20255;-82
2022/06/17 08:02:54;;;;;;;1.38;1.27;;;;;;;;;;5018477;28;20238;-82
2022/06/17 08:05:22;;;;;;;1.48;1.38;;;;;;;;;;5017887;28;20246;-83
2022/06/17 08:07:50;;;;;;;1.90;1.80;;;;;;;;;;5018162;28;20199;-82
2022/06/17 08:10:20;;;;;;;1.80;1.67;;;;;;;;;;5017990;28;20746;-82
2022/06/17 08:12:47;;;;;;;1.23;1.23;;;;;;;;;;5017106;28;20258;-82
2022/06/17 08:15:15;;;;;;;1.42;1.33;;;;;;;;;;5017736;28;20246;-82
2022/06/17 08:17:44;;;;;;;1.42;1.33;;;;;;;;;;5017477;28;20203;-81
2022/06/17 08:20:17;;;;;;;1.02;1.02;;;;;;;;;;5017701;28;20219;-81
2022/06/17 08:22:45;;;;;;;1.45;1.35;;;;;;;;;;5017542;28;20241;-81
2022/06/17 08:25:13;;;;;;;2.28;1.73;;;;;;;;;;5018233;28;20271;-83
2022/06/17 08:27:45;;;;;;;1.48;1.33;;;;;;;;;;5017885;28;20221;-83
2022/06/17 08:30:14;;;;;;;1.83;1.73;;;;;;;;;;5018072;28;20218;-85
2022/06/17 08:32:46;;;;;;;1.67;1.58;;;;;;;;;;5017401;28;20267;-84
2022/06/17 08:35:14;;;;;;;2.03;1.80;;;;;;;;;;5018116;28;20207;-82
2022/06/17 08:37:42;;;;;;;1.70;1.48;;;;;;;;;;5017556;28;20656;-84
2022/06/17 08:40:38;;;;;;;1.48;1.38;;;;;;;;;;5017205;28;20250;-84
2022/06/17 08:43:32;;;;;;;1.98;1.77;;;;;;;;;;5017895;28;20708;-82
2022/06/17 08:46:13;;;;;;;1.45;1.35;;;;;;;;;;5018333;28;20234;-83
2022/06/17 08:49:12;;;;;;;1.55;1.45;;;;;;;;;;5018280;28;20269;-82
2022/06/17 08:51:59;;;;;;;1.02;1.02;;;;;;;;;;5017291;28;20207;-81
2022/06/17 08:54:46;;;;;;;2.05;1.95;;;;;;;;;;5017836;28;20546;-81
2022/06/17 08:57:20;;;;;;;1.48;1.38;;;;;;;;;;5016914;28;20294;-83
2022/06/17 09:00:04;;;;;;;1.40;1.23;;;;;;;;;;5018622;28;20252;-82
2022/06/17 09:02:54;;;;;;;1.88;1.45;;;;;;;;;;5016563;28;20266;-82
2022/06/17 09:05:37;;;;;;;1.40;1.30;;;;;;;;;;5017019;28;20278;-82
2022/06/17 09:08:38;;;;;;;1.20;1.20;;;;;;;;;;5029920;23;20243;-82
2022/06/17 09:11:16;;;;;;;2.45;1.40;;;;;;;;;;4994005;28;20746;-79
2022/06/17 09:14:01;;;;;;;1.25;1.20;;;;;;;;;;4994357;28;20314;-80
2022/06/17 09:16:37;;;;;;;1.73;1.40;;;;;;;;;;4994489;28;20270;-80
2022/06/17 09:19:05;;;;;;;1.63;1.45;;;;;;;;;;5003638;28;20593;-79
2022/06/17 09:21:37;;;;;;;2.33;1.38;;;;;;;;;;5013807;28;20294;-79
2022/06/17 09:24:09;;;;;;;1.75;1.60;;;;;;;;;;5026924;28;20215;-80
2022/06/17 09:26:42;;;;;;;2.22;1.70;;;;;;;;;;5030705;28;20227;-79
2022/06/17 09:29:14;;;;;;;1.27;1.17;;;;;;;;;;5029975;28;20246;-80
2022/06/17 09:31:45;;;;;;;1.30;1.30;;;;;;;;;;5025008;28;20209;-81
2022/06/17 09:34:15;;;;;;;1.40;1.30;;;;;;;;;;5017006;28;20678;-81
2022/06/17 09:36:49;;;;;;;2.05;1.10;;;;;;;;;;5017136;28;20263;-81
2022/06/17 09:39:25;;;;;;;1.63;1.20;;;;;;;;;;5018269;28;20245;-81
2022/06/17 09:41:57;;;;;;;1.40;1.30;;;;;;;;;;5016610;28;20278;-81
2022/06/17 09:44:29;;;;;;;1.00;1.00;;;;;;;;;;5017133;28;20231;-81
2022/06/17 09:47:04;;;;;;;2.08;1.30;;;;;;;;;;5018089;28;20262;-81
2022/06/17 09:49:39;;;;;;;1.48;1.38;;;;;;;;;;5001606;28;20282;-81
2022/06/17 09:52:13;;;;;;;1.20;1.20;;;;;;;;;;4996118;28;20213;-80
2022/06/17 09:54:45;;;;;;;1.30;1.20;;;;;;;;;;4997457;28;20226;-80
2022/06/17 09:57:16;;;;;;;1.30;1.20;;;;;;;;;;4996861;28;20290;-81
2022/06/17 09:59:50;;;;;;;1.00;1.00;;;;;;;;;;4996541;28;20310;-81
2022/06/17 10:02:24;;;;;;;1.80;1.17;;;;;;;;;;4996187;28;20204;-81
2022/06/17 10:04:52;;;;;;;2.05;1.20;;;;;;;;;;4996563;28;20668;-81
2022/06/17 10:07:27;;;;;;;1.05;1.02;;;;;;;;;;4995417;28;20298;-80
2022/06/17 10:10:11;;;;;;;0.90;0.90;;;;;;;;;;4995430;28;20314;-81
2022/06/17 10:12:49;;;;;;;0.85;0.85;;;;;;;;;;4994801;28;20286;-81
2022/06/17 10:15:30;;;;;;;0.98;0.98;;;;;;;;;;4995125;28;20631;-81
2022/06/17 10:21:07;;;;;;;4.18;1.08;;;;;;;;;;5014636;28;20229;-81
2022/06/17 10:23:49;;;;;;;1.30;1.20;;;;;;;;;;5014640;28;20560;-81
2022/06/17 10:26:29;;;;;;;1.02;1.00;;;;;;;;;;5014705;28;20265;-81
2022/06/17 10:29:27;;;;;;;0.93;0.93;;;;;;;;;;5014231;28;20218;-80
2022/06/17 10:31:55;;;;;;;1.05;0.95;;;;;;;;;;5013962;28;20241;-81
2022/06/17 10:34:26;;;;;;;0.90;0.90;;;;;;;;;;5014105;28;20310;-80
2022/06/17 10:36:56;;;;;;;0.95;0.95;;;;;;;;;;5014199;28;20209;-80
2022/06/17 10:39:29;;;;;;;0.90;0.90;;;;;;;;;;5013088;28;20289;-81
2022/06/17 10:41:57;;;;;;;1.27;0.93;;;;;;;;;;5012883;28;20207;-81
2022/06/17 10:44:27;;;;;;;0.85;0.85;;;;;;;;;;5013278;28;20290;-80
2022/06/17 10:47:02;;;;;;;0.80;0.80;;;;;;;;;;5014613;28;20266;-81
2022/06/17 10:49:33;;;;;;;0.90;0.90;;;;;;;;;;4998187;28;20241;-81
2022/06/17 10:52:02;;;;;;;2.38;1.25;;;;;;;;;;4993764;28;20216;-80
2022/06/17 10:54:35;;;;;;;0.90;0.90;;;;;;;;;;4993796;28;20322;-81
2022/06/17 10:57:08;;;;;;;0.80;0.80;;;;;;;;;;4994434;28;20290;-80
2022/06/17 10:59:41;;;;;;;0.90;0.90;;;;;;;;;;4993537;28;20712;-80
2022/06/17 11:02:27;;;;;;;0.90;0.90;;;;;;;;;;4992675;28;20639;-80
2022/06/17 11:04:57;;;;;;;0.95;0.95;;;;;;;;;;4993822;28;20200;-81
2022/06/17 11:07:28;;;;;;;0.85;0.85;;;;;;;;;;4993807;28;20283;-80
2022/06/17 11:10:00;;;;;;;0.60;0.60;;;;;;;;;;4993692;28;20242;-80
2022/06/17 11:12:35;;;;;;;0.73;0.73;;;;;;;;;;4992859;28;20667;-79
2022/06/17 11:15:05;;;;;;;0.80;0.80;;;;;;;;;;4993808;28;20695;-81
2022/06/17 11:17:40;;;;;;;1.52;1.08;;;;;;;;;;4991879;28;20208;-81
2022/06/17 11:20:20;;;;;;;1.00;1.00;;;;;;;;;;4974408;28;20318;-81
2022/06/17 11:22:54;;;;;;;0.80;0.80;;;;;;;;;;4973996;28;20211;-80
2022/06/17 11:25:27;;;;;;;0.90;0.90;;;;;;;;;;4974209;28;20315;-81
2022/06/17 11:27:57;;;;;;;1.00;0.90;;;;;;;;;;4974316;28;20209;-81
2022/06/17 11:30:30;;;;;;;0.70;0.70;;;;;;;;;;4974022;28;20720;-81
2022/06/17 11:33:00;;;;;;;0.93;0.93;;;;;;;;;;4973634;28;20295;-80
2022/06/17 11:35:39;;;;;;;1.33;1.10;;;;;;;;;;4973822;28;20254;-81
2022/06/17 11:38:13;;;;;;;0.80;0.80;;;;;;;;;;4973597;28;20288;-81
2022/06/17 11:40:51;;;;;;;1.50;0.98;;;;;;;;;;4977069;28;20318;-79
2022/06/17 11:43:34;;;;;;;1.55;1.23;;;;;;;;;;4976264;28;20310;-81
2022/06/17 11:46:09;;;;;;;0.90;0.90;;;;;;;;;;4977252;28;20286;-80
2022/06/17 11:48:41;;;;;;;0.70;0.70;;;;;;;;;;4993306;28;20289;-82
2022/06/17 11:51:12;;;;;;;0.80;0.80;;;;;;;;;;5016398;28;20223;-81
2022/06/17 11:53:48;;;;;;;0.90;0.90;;;;;;;;;;5015417;28;20230;-80
2022/06/17 11:56:32;;;;;;;0.80;0.80;;;;;;;;;;5016093;28;20717;-81
2022/06/17 11:59:07;;;;;;;0.82;0.82;;;;;;;;;;5015862;28;20199;-81
2022/06/17 12:01:35;;;;;;;0.90;0.90;;;;;;;;;;4997482;23;20286;-83
2022/06/17 12:04:03;;;;;;;0.80;0.80;;;;;;;;;;4976604;28;20295;-83
2022/06/17 12:06:35;;;;;;;1.85;0.80;;;;;;;;;;4977135;28;20291;-84
2022/06/17 12:09:11;;;;;;;1.15;0.82;;;;;;;;;;4977073;28;20642;-82
2022/06/17 12:11:47;;;;;;;0.90;0.90;;;;;;;;;;4975205;28;20310;-82
2022/06/17 12:14:20;;;;;;;1.67;0.80;;;;;;;;;;4976517;28;20780;-81
2022/06/17 12:16:49;;;;;;;1.30;1.30;;;;;;;;;;4976318;28;20314;-83
2022/06/17 12:19:20;;;;;;;0.82;0.82;;;;;;;;;;4973940;28;20291;-82
2022/06/17 12:21:56;;;;;;;0.90;0.90;;;;;;;;;;4975782;28;20230;-82
2022/06/17 12:24:32;;;;;;;0.88;0.88;;;;;;;;;;4976715;28;20243;-83
2022/06/17 12:27:11;;;;;;;0.80;0.80;;;;;;;;;;4976169;28;20744;-82
2022/06/17 12:29:45;;;;;;;0.70;0.70;;;;;;;;;;4976066;28;20582;-83
2022/06/17 12:32:17;;;;;;;0.65;0.65;;;;;;;;;;4975581;28;20307;-83
2022/06/17 12:34:50;;;;;;;0.95;0.95;;;;;;;;;;4975983;28;20208;-82
2022/06/17 12:37:31;;;;;;;0.80;0.80;;;;;;;;;;4976346;28;20731;-82
2022/06/17 12:40:05;;;;;;;0.80;0.80;;;;;;;;;;4976140;28;20314;-84
2022/06/17 12:42:40;;;;;;;0.50;0.50;;;;;;;;;;4975130;28;20263;-82
2022/06/17 12:45:18;;;;;;;1.00;1.00;;;;;;;;;;4976098;28;20219;-82
2022/06/17 12:47:58;;;;;;;0.90;0.90;;;;;;;;;;4975840;28;20298;-82
2022/06/17 12:53:30;;;;;;;0.77;0.77;;;;;;;;;;4975386;28;20271;-82
2022/06/17 12:56:19;;;;;;;0.95;0.95;;;;;;;;;;4976905;28;20224;-83
2022/06/17 12:59:28;;;;;;;1.00;0.90;;;;;;;;;;4976436;28;20239;-83
2022/06/17 13:02:03;;;;;;;0.70;0.70;;;;;;;;;;4975252;28;20783;-82
2022/06/17 13:04:44;;;;;;;0.60;0.60;;;;;;;;;;4976906;28;20294;-81
2022/06/17 13:07:18;;;;;;;0.73;0.73;;;;;;;;;;4976457;28;20295;-83
2022/06/17 13:09:54;;;;;;;0.73;0.73;;;;;;;;;;4975847;28;20788;-82
2022/06/17 13:12:28;;;;;;;0.70;0.70;;;;;;;;;;4975721;28;20259;-83
2022/06/17 13:15:02;;;;;;;0.70;0.70;;;;;;;;;;4976112;28;20295;-82
2022/06/17 13:17:36;;;;;;;0.75;0.75;;;;;;;;;;4973014;28;20224;-82
2022/06/17 13:20:10;;;;;;;0.80;0.80;;;;;;;;;;4975314;28;20311;-81
2022/06/17 13:22:44;;;;;;;0.93;0.93;;;;;;;;;;4974351;28;20294;-84
2022/06/17 13:25:22;;;;;;;0.52;0.52;;;;;;;;;;4975320;28;20286;-83
2022/06/17 13:27:58;;;;;;;0.80;0.80;;;;;;;;;;4974839;28;20302;-81
2022/06/17 13:30:32;;;;;;;0.70;0.70;;;;;;;;;;4974734;28;20306;-82
2022/06/17 13:33:04;;;;;;;0.88;0.88;;;;;;;;;;4974851;28;20214;-82
2022/06/17 13:35:36;;;;;;;0.65;0.65;;;;;;;;;;4974993;28;20291;-81
2022/06/17 13:38:08;;;;;;;0.90;0.90;;;;;;;;;;4974789;28;20227;-81
2022/06/17 13:40:41;;;;;;;0.82;0.82;;;;;;;;;;4975209;28;20661;-82
2022/06/17 13:43:18;;;;;;;0.73;0.73;;;;;;;;;;4974222;28;20617;-82
2022/06/17 13:45:54;;;;;;;0.77;0.77;;;;;;;;;;4974499;28;20200;-83
2022/06/17 13:48:30;;;;;;;0.82;0.82;;;;;;;;;;4974746;28;20693;-82
2022/06/17 13:51:10;;;;;;;0.85;0.85;;;;;;;;;;4974456;28;20315;-82
2022/06/17 13:53:49;;;;;;;0.70;0.70;;;;;;;;;;4974386;28;20299;-81
2022/06/17 13:56:24;;;;;;;0.98;0.93;;;;;;;;;;4974822;28;20319;-84
2022/06/17 13:58:55;;;;;;;0.70;0.60;;;;;;;;;;4975116;28;20200;-81
2022/06/17 14:01:44;;;;;;;0.73;0.73;;;;;;;;;;4974859;28;20769;-83
2022/06/17 14:04:22;;;;;;;0.80;0.80;;;;;;;;;;4974724;28;20287;-81
2022/06/17 14:07:05;;;;;;;0.73;0.73;;;;;;;;;;4974633;28;20210;-80
2022/06/17 14:09:38;;;;;;;0.50;0.50;;;;;;;;;;4974495;28;20259;-81
2022/06/17 14:12:23;;;;;;;1.50;0.65;;;;;;;;;;4972283;28;20242;-81
2022/06/17 14:14:50;;;;;;;0.60;0.60;;;;;;;;;;4973163;28;20287;-81
2022/06/17 14:17:23;;;;;;;0.55;0.55;;;;;;;;;;4972518;28;20228;-81
2022/06/17 14:19:54;;;;;;;0.80;0.80;;;;;;;;;;4973839;28;20311;-82
2022/06/17 14:22:27;;;;;;;0.80;0.80;;;;;;;;;;4974562;28;20200;-81
2022/06/17 14:25:19;;;;;;;0.88;0.88;;;;;;;;;;4975443;28;20269;-83
2022/06/17 14:28:00;;;;;;;0.90;0.90;;;;;;;;;;4974342;28;20204;-82
2022/06/17 14:30:50;;;;;;;1.17;1.17;;;;;;;;;;4974937;28;20224;-82
2022/06/17 14:33:41;;;;;;;1.00;1.00;;;;;;;;;;4974231;28;20246;-81
2022/06/17 14:36:19;;;;;;;1.55;1.00;;;;;;;;;;4974902;28;20204;-82
2022/06/17 14:39:03;;;;;;;2.58;1.23;;;;;;;;;;4974866;28;20646;-82
2022/06/17 14:44:30;;;;;;;0.68;0.68;;;;;;;;;;4973841;28;20294;-82
2022/06/17 14:47:36;;;;;;;0.80;0.80;;;;;;;;;;4974458;28;20287;-84
2022/06/17 14:50:25;;;;;;;0.80;0.80;;;;;;;;;;4974733;28;20652;-83
2022/06/17 14:53:26;;;;;;;0.93;0.93;;;;;;;;;;4973391;28;20212;-82
2022/06/17 14:56:41;;;;;;;0.75;0.75;;;;;;;;;;4974566;28;20200;-82
2022/06/17 14:59:21;;;;;;;0.80;0.80;;;;;;;;;;4974032;28;20672;-82
2022/06/17 15:01:51;;;;;;;0.93;0.93;;;;;;;;;;4973160;28;20251;-82
2022/06/17 15:04:31;;;;;;;0.95;0.95;;;;;;;;;;4973844;28;20677;-82
2022/06/17 15:07:07;;;;;;;1.00;1.00;;;;;;;;;;4974375;28;20735;-82
2022/06/17 15:09:40;;;;;;;1.00;0.90;;;;;;;;;;4973675;28;20279;-82
2022/06/17 15:12:24;;;;;;;0.88;0.88;;;;;;;;;;4972618;28;20287;-82
2022/06/17 15:15:00;;;;;;;0.77;0.77;;;;;;;;;;4976112;28;20192;-81
2022/06/17 15:17:37;;;;;;;0.88;0.88;;;;;;;;;;4975825;28;20314;-82
2022/06/17 15:20:11;;;;;;;1.02;1.02;;;;;;;;;;4976705;28;20254;-80
2022/06/17 15:22:58;;;;;;;0.90;0.90;;;;;;;;;;4976372;28;20290;-82
2022/06/17 15:25:37;;;;;;;0.68;0.68;;;;;;;;;;4976980;28;20204;-82
2022/06/17 15:28:16;;;;;;;0.70;0.70;;;;;;;;;;4976833;28;20291;-83
2022/06/17 15:30:45;;;;;;;0.75;0.75;;;;;;;;;;4976900;28;20307;-82
2022/06/17 15:33:21;;;;;;;0.70;0.70;;;;;;;;;;4978261;28;20243;-83